createdAt,value
2023-02-11T00:00:44.791Z,103485.47
2023-02-11T00:03:11.277Z,103488.94
2023-02-11T00:05:37.728Z,103494.31
2023-02-11T00:08:04.440Z,103488.16
2023-02-11T00:10:30.929Z,103480.09
2023-02-11T00:12:57.478Z,103473.06
2023-02-11T00:15:23.864Z,103480.09
2023-02-11T00:17:50.328Z,103488.16
2023-02-11T00:20:16.728Z,103477.66
2023-02-11T00:22:43.924Z,103482.78
2023-02-11T00:25:10.325Z,103480.34
2023-02-11T00:27:37.604Z,103476.03
2023-02-11T00:30:05.343Z,103483.28
2023-02-11T00:32:31.765Z,103483.28
2023-02-11T00:34:58.172Z,103491.59
2023-02-11T00:37:24.557Z,103489.72
2023-02-11T00:39:51.001Z,103477.09
2023-02-11T00:42:17.432Z,103483.81
2023-02-11T00:44:43.801Z,103488.41
2023-02-11T00:47:10.309Z,103489.47
2023-02-11T00:49:37.025Z,103494.56
2023-02-11T00:52:03.963Z,103486.50
2023-02-11T00:54:30.403Z,103483.03
2023-02-11T00:56:59.184Z,103487.59
2023-02-11T00:59:25.670Z,103482.22
2023-02-11T01:01:52.119Z,103477.09
2023-02-11T01:04:18.477Z,103470.91
2023-02-11T01:06:44.915Z,103464.72
2023-02-11T01:09:11.452Z,103464.16
2023-02-11T01:11:37.862Z,103455.28
2023-02-11T01:14:04.474Z,103452.31
2023-02-11T01:16:30.877Z,103458.72
2023-02-11T01:18:58.868Z,103461.66
2023-02-11T01:21:25.757Z,103457.38
2023-02-11T01:23:52.814Z,103438.81
2023-02-11T01:26:19.457Z,103427.53
2023-02-11T01:28:45.854Z,103428.56
2023-02-11T01:31:12.337Z,103425.81
2023-02-11T01:33:38.870Z,103435.47
2023-02-11T01:36:06.832Z,103447.50
2023-02-11T01:38:34.018Z,103460.94
2023-02-11T01:41:03.255Z,103460.94
2023-02-11T01:43:34.783Z,103473.56
2023-02-11T01:46:20.260Z,103472.53
2023-02-11T01:48:55.810Z,103473.31
2023-02-11T01:51:27.413Z,103463.38
2023-02-11T01:54:14.008Z,103467.16
2023-02-11T01:57:05.162Z,103459.09
2023-02-11T01:59:36.158Z,103464.47
2023-02-11T02:02:08.552Z,103471.13
2023-02-11T02:04:42.277Z,103472.47
2023-02-11T02:07:14.552Z,103474.56
2023-02-11T02:09:48.327Z,103475.09
2023-02-11T02:12:14.786Z,103475.88
2023-02-11T02:14:41.852Z,103469.13
2023-02-11T02:17:24.931Z,103462.97
2023-02-11T02:20:00.416Z,103458.66
2023-02-11T02:22:52.712Z,103458.09
2023-02-11T02:25:56.062Z,103460.47
2023-02-11T02:28:58.484Z,103457.22
2023-02-11T02:31:39.924Z,103462.53
2023-02-11T02:34:19.330Z,103457.59
2023-02-11T02:37:04.788Z,103458.59
2023-02-11T02:39:35.943Z,103451.03
2023-02-11T02:42:04.960Z,103441.34
2023-02-11T02:44:32.461Z,103440.53
2023-02-11T02:46:58.970Z,103432.72
2023-02-11T02:49:25.446Z,103425.25
2023-02-11T02:52:09.485Z,103445.09
2023-02-11T02:54:51.076Z,103449.41
2023-02-11T02:57:59.533Z,103449.69
2023-02-11T03:00:51.634Z,103448.34
2023-02-11T03:03:29.508Z,103446.78
2023-02-11T03:06:13.272Z,103447.09
2023-02-11T03:09:06.339Z,103436.34
2023-02-11T03:11:35.990Z,103428.28
2023-02-11T03:14:04.541Z,103434.50
2023-02-11T03:16:37.943Z,103437.44
2023-02-11T03:19:20.396Z,103422.13
2023-02-11T03:21:49.171Z,103409.78
2023-02-11T03:24:23.865Z,103408.41
2023-02-11T03:26:53.941Z,103410.53
2023-02-11T03:29:39.171Z,103406.19
2023-02-11T03:32:17.693Z,103409.13
2023-02-11T03:34:47.075Z,103414.78
2023-02-11T03:37:31.786Z,103410.22
2023-02-11T03:40:06.698Z,103425.50
2023-02-11T03:42:39.960Z,103414.78
2023-02-11T03:45:10.723Z,103406.72
2023-02-11T03:47:39.910Z,103404.28
2023-02-11T03:50:08.747Z,103394.03
2023-02-11T03:52:37.981Z,103394.53
2023-02-11T03:55:11.244Z,103397.47
2023-02-11T03:57:38.113Z,103392.09
2023-02-11T04:00:06.977Z,103397.16
2023-02-11T04:02:34.844Z,103399.28
2023-02-11T04:05:01.552Z,103411.59
2023-02-11T04:07:28.220Z,103413.19
2023-02-11T04:09:54.769Z,103410.25
2023-02-11T04:12:21.535Z,103417.56
2023-02-11T04:14:47.949Z,103419.78
2023-02-11T04:17:14.401Z,103417.41
2023-02-11T04:19:41.064Z,103425.75
2023-02-11T04:22:07.968Z,103420.94
2023-02-11T04:24:34.626Z,103426.06
2023-02-11T04:27:01.280Z,103421.50
2023-02-11T04:29:28.297Z,103419.38
2023-02-11T04:31:55.686Z,103418.09
2023-02-11T04:34:24.509Z,103426.13
2023-02-11T04:36:51.151Z,103427.50
2023-02-11T04:39:17.672Z,103424.56
2023-02-11T04:41:44.205Z,103422.13
2023-02-11T04:44:11.142Z,103429.69
2023-02-11T04:46:37.736Z,103427.56
2023-02-11T04:49:04.422Z,103431.63
2023-02-11T04:51:31.735Z,103433.47
2023-02-11T04:53:58.165Z,103432.44
2023-02-11T04:56:24.639Z,103424.38
2023-02-11T04:58:51.168Z,103422.50
2023-02-11T05:01:17.675Z,103426.00
2023-02-11T05:03:44.397Z,103420.38
2023-02-11T05:06:11.480Z,103429.25
2023-02-11T05:08:38.032Z,103425.50
2023-02-11T05:11:04.872Z,103435.19
2023-02-11T05:13:32.052Z,103437.63
2023-02-11T05:15:58.532Z,103433.84
2023-02-11T05:18:25.022Z,103430.91
2023-02-11T05:20:51.691Z,103432.31
2023-02-11T05:23:18.112Z,103426.44
2023-02-11T05:25:44.509Z,103434.22
2023-02-11T05:28:10.932Z,103426.75
2023-02-11T05:30:37.461Z,103431.59
2023-02-11T05:33:04.028Z,103428.09
2023-02-11T05:35:30.469Z,103428.91
2023-02-11T05:37:57.042Z,103427.84
2023-02-11T05:40:23.556Z,103424.13
2023-02-11T05:42:50.064Z,103431.09
2023-02-11T05:45:16.555Z,103420.34
2023-02-11T05:47:43.043Z,103415.53
2023-02-11T05:50:09.611Z,103419.06
2023-02-11T05:52:36.391Z,103421.97
2023-02-11T05:55:03.110Z,103421.72
2023-02-11T05:57:29.548Z,103424.41
2023-02-11T05:59:56.089Z,103425.22
2023-02-11T06:02:22.726Z,103428.47
2023-02-11T06:04:49.156Z,103433.28
2023-02-11T06:07:15.794Z,103428.47
2023-02-11T06:09:42.322Z,103430.09
2023-02-11T06:12:08.816Z,103432.78
2023-02-11T06:14:35.788Z,103441.66
2023-02-11T06:17:02.178Z,103439.75
2023-02-11T06:19:28.654Z,103442.19
2023-02-11T06:21:56.428Z,103443.84
2023-02-11T06:24:47.806Z,103437.38
2023-02-11T06:27:09.833Z,103440.06
2023-02-11T06:29:36.244Z,103438.75
2023-02-11T06:32:02.833Z,103436.63
2023-02-11T06:34:29.375Z,103441.50
2023-02-11T06:36:55.797Z,103438.81
2023-02-11T06:39:22.290Z,103431.84
2023-02-11T06:41:49.048Z,103436.19
2023-02-11T06:44:15.525Z,103431.84
2023-02-11T06:46:41.984Z,103436.19
2023-02-11T06:49:08.697Z,103429.72
2023-02-11T06:51:35.142Z,103431.34
2023-02-11T06:54:01.534Z,103433.78
2023-02-11T06:56:28.004Z,103431.34
2023-02-11T06:58:57.822Z,103438.13
2023-02-11T07:01:25.936Z,103431.66
2023-02-11T07:03:54.373Z,103434.34
2023-02-11T07:06:23.262Z,103452.09
2023-02-11T07:08:50.179Z,103445.66
2023-02-11T07:11:27.766Z,103450.78
2023-02-11T07:13:56.447Z,103450.28
2023-02-11T07:16:23.402Z,103452.72
2023-02-11T07:18:50.055Z,103454.91
2023-02-11T07:21:20.716Z,103457.34
2023-02-11T07:23:48.433Z,103458.94
2023-02-11T07:26:18.117Z,103465.94
2023-02-11T07:28:45.299Z,103471.63
2023-02-11T07:31:22.004Z,103466.00
2023-02-11T07:33:49.096Z,103469.00
2023-02-11T07:36:16.602Z,103470.38
2023-02-11T07:38:43.435Z,103477.94
2023-02-11T07:41:11.785Z,103477.44
2023-02-11T07:43:39.582Z,103477.72
2023-02-11T07:46:13.085Z,103483.09
2023-02-11T07:48:40.023Z,103484.47
2023-02-11T07:51:09.814Z,103489.06
2023-02-11T07:53:36.833Z,103494.22
2023-02-11T07:56:08.417Z,103485.88
2023-02-11T07:58:35.309Z,103478.38
2023-02-11T08:01:08.043Z,103481.59
2023-02-11T08:03:35.488Z,103483.00
2023-02-11T08:06:06.739Z,103488.13
2023-02-11T08:08:33.141Z,103484.88
2023-02-11T08:11:05.125Z,103488.41
2023-02-11T08:13:31.561Z,103490.31
2023-02-11T08:15:58.032Z,103492.50
2023-02-11T08:18:24.465Z,103485.81
2023-02-11T08:20:51.139Z,103496.03
2023-02-11T08:23:17.684Z,103498.22
2023-02-11T08:25:44.250Z,103482.06
2023-02-11T08:28:10.747Z,103489.06
2023-02-11T08:30:37.189Z,103486.13
2023-02-11T08:33:03.773Z,103495.81
2023-02-11T08:35:30.193Z,103494.75
2023-02-11T08:37:56.549Z,103499.63
2023-02-11T08:40:23.136Z,103506.88
2023-02-11T08:42:49.604Z,103509.59
2023-02-11T08:45:16.037Z,103502.66
2023-02-11T08:47:42.429Z,103511.81
2023-02-11T08:50:09.386Z,103506.22
2023-02-11T08:52:36.421Z,103508.94
2023-02-11T08:55:02.973Z,103512.44
2023-02-11T08:57:29.552Z,103513.25
2023-02-11T08:59:55.932Z,103514.13
2023-02-11T09:02:22.504Z,103509.56
2023-02-11T09:04:49.030Z,103519.31
2023-02-11T09:07:15.518Z,103519.06
2023-02-11T09:09:42.024Z,103521.53
2023-02-11T09:12:08.493Z,103523.97
2023-02-11T09:14:35.150Z,103529.41
2023-02-11T09:17:01.812Z,103531.34
2023-02-11T09:19:28.454Z,103537.56
2023-02-11T09:21:54.879Z,103537.31
2023-02-11T09:24:21.349Z,103534.91
2023-02-11T09:26:47.823Z,103540.03
2023-02-11T09:29:14.301Z,103542.47
2023-02-11T09:31:40.846Z,103543.81
2023-02-11T09:34:07.513Z,103542.50
2023-02-11T09:36:40.073Z,103543.31
2023-02-11T09:39:11.321Z,103548.44
2023-02-11T09:42:02.952Z,103541.47
2023-02-11T09:44:33.368Z,103549.84
2023-02-11T09:47:07.330Z,103543.38
2023-02-11T09:49:40.852Z,103551.50
2023-02-11T09:52:36.928Z,103548.53
2023-02-11T09:55:11.325Z,103547.72
2023-02-11T09:57:37.865Z,103549.38
2023-02-11T10:00:17.020Z,103555.06
2023-02-11T10:03:00.848Z,103568.56
2023-02-11T10:05:48.813Z,103571.81
2023-02-11T10:08:27.397Z,103572.34
2023-02-11T10:11:22.631Z,103584.47
2023-02-11T10:14:09.455Z,103582.88
2023-02-11T10:16:55.763Z,103580.94
2023-02-11T10:19:38.743Z,103581.97
2023-02-11T10:22:28.451Z,103594.03
2023-02-11T10:25:00.447Z,103590.63
2023-02-11T10:27:31.962Z,103592.09
2023-02-11T10:30:19.304Z,103597.91
2023-02-11T10:32:53.972Z,103607.25
2023-02-11T10:35:24.753Z,103600.97
2023-02-11T10:37:51.165Z,103598.50
2023-02-11T10:40:21.389Z,103603.38
2023-02-11T10:42:52.456Z,103605.72
2023-02-11T10:45:32.285Z,103610.44
2023-02-11T10:47:59.726Z,103620.84
2023-02-11T10:50:29.671Z,103615.47
2023-02-11T10:53:20.664Z,103603.28
2023-02-11T10:55:55.790Z,103617.97
2023-02-11T10:58:29.159Z,103611.81
2023-02-11T11:00:58.355Z,103612.88
2023-02-11T11:03:27.613Z,103608.56
2023-02-11T11:06:06.484Z,103613.28
2023-02-11T11:08:45.633Z,103616.75
2023-02-11T11:11:18.388Z,103610.09
2023-02-11T11:13:53.833Z,103627.44
2023-02-11T11:16:32.327Z,103627.75
2023-02-11T11:19:07.834Z,103635.00
2023-02-11T11:21:42.012Z,103632.91
2023-02-11T11:24:27.915Z,103629.94
2023-02-11T11:26:56.999Z,103637.78
2023-02-11T11:29:35.611Z,103638.63
2023-02-11T11:32:05.861Z,103642.66
2023-02-11T11:35:03.948Z,103649.50
2023-02-11T11:37:36.399Z,103637.63
2023-02-11T11:40:22.502Z,103643.19
2023-02-11T11:43:02.697Z,103656.59
2023-02-11T11:45:29.228Z,103647.41
2023-02-11T11:48:12.758Z,103643.91
2023-02-11T11:50:47.216Z,103637.47
2023-02-11T11:53:23.487Z,103633.25
2023-02-11T11:56:14.598Z,103622.53
2023-02-11T11:58:41.616Z,103630.03
2023-02-11T12:01:34.759Z,103624.44
2023-02-11T12:04:29.390Z,103620.22
2023-02-11T12:07:02.225Z,103627.16
2023-02-11T12:09:43.091Z,103622.06
2023-02-11T12:12:26.721Z,103613.94
2023-02-11T12:15:02.436Z,103610.94
2023-02-11T12:17:52.577Z,103605.09
2023-02-11T12:20:40.471Z,103609.03
2023-02-11T12:23:34.618Z,103615.25
2023-02-11T12:26:01.108Z,103616.03
2023-02-11T12:29:08.482Z,103619.50
2023-02-11T12:31:37.849Z,103614.91
2023-02-11T12:34:34.151Z,103617.63
2023-02-11T12:37:18.781Z,103617.09
2023-02-11T12:40:03.402Z,103621.88
2023-02-11T12:43:17.371Z,103616.56
2023-02-11T12:46:01.247Z,103619.03
2023-02-11T12:48:57.098Z,103620.38
2023-02-11T12:51:48.445Z,103616.19
2023-02-11T16:32:30.622Z,103677.63
2023-02-11T16:35:00.897Z,103674.41
2023-02-11T16:37:28.515Z,103675.72
2023-02-11T16:39:58.174Z,103678.16
2023-02-11T16:42:24.767Z,103683.28
2023-02-11T16:44:51.397Z,103679.78
2023-02-11T16:47:25.966Z,103683.53
2023-02-11T16:49:53.117Z,103681.41
2023-02-11T16:52:21.069Z,103680.81
2023-02-11T16:54:47.585Z,103691.63
2023-02-11T16:57:17.174Z,103693.75
2023-02-11T16:59:44.694Z,103698.63
2023-02-11T17:02:25.170Z,103701.03
2023-02-11T17:04:53.909Z,103711.28
2023-02-11T17:07:20.781Z,103718.56
2023-02-11T17:09:47.314Z,103723.41
2023-02-11T17:12:13.823Z,103728.25
2023-02-11T17:14:40.745Z,103715.28
2023-02-11T17:17:07.973Z,103724.47
2023-02-11T17:19:34.534Z,103728.50
2023-02-11T17:22:01.149Z,103724.47
2023-02-11T17:24:27.965Z,103723.09
2023-02-11T17:26:54.941Z,103734.69
2023-02-11T17:29:24.152Z,103728.16
2023-02-11T17:31:52.188Z,103730.06
2023-02-11T17:34:20.154Z,103729.53
2023-02-11T17:36:46.903Z,103734.38
2023-02-11T17:39:14.077Z,103733.81
2023-02-11T17:41:41.400Z,103736.75
2023-02-11T17:44:09.068Z,103738.41
2023-02-11T17:46:36.270Z,103744.56
2023-02-11T17:49:12.299Z,103741.56
2023-02-11T17:51:39.816Z,103745.38
2023-02-11T17:54:12.765Z,103744.25
2023-02-11T17:56:39.742Z,103750.72
2023-02-11T17:59:08.360Z,103752.88
2023-02-11T18:01:36.690Z,103748.00
2023-02-11T18:04:04.693Z,103756.34
2023-02-11T18:06:31.667Z,103750.97
2023-02-11T18:08:59.821Z,103748.78
2023-02-11T18:11:27.973Z,103756.56
2023-02-11T18:13:54.618Z,103748.44
2023-02-11T18:16:22.423Z,103753.28
2023-02-11T18:18:49.881Z,103758.66
2023-02-11T18:21:19.496Z,103758.91
2023-02-11T18:23:47.006Z,103764.00
2023-02-11T18:26:16.240Z,103762.09
2023-02-11T18:28:45.727Z,103772.88
2023-02-11T18:31:14.276Z,103775.34
2023-02-11T18:33:42.231Z,103774.28
2023-02-11T18:36:11.685Z,103771.31
2023-02-11T18:38:38.877Z,103770.50
2023-02-11T18:41:05.354Z,103778.56
2023-02-11T18:43:33.812Z,103776.72
2023-02-11T18:46:02.147Z,103786.13
2023-02-11T18:48:29.180Z,103788.81
2023-02-11T18:50:56.198Z,103784.50
2023-02-11T18:53:24.510Z,103791.75
2023-02-11T18:55:52.338Z,103784.50
2023-02-11T18:58:19.009Z,103787.72
2023-02-11T19:00:47.069Z,103786.06
2023-02-11T19:03:13.944Z,103784.47
2023-02-11T19:05:49.337Z,103792.81
2023-02-11T19:08:17.167Z,103800.06
2023-02-11T19:10:46.768Z,103786.56
2023-02-11T19:13:14.479Z,103795.75
2023-02-11T19:15:45.282Z,103794.13
2023-02-11T19:18:13.742Z,103793.56
2023-02-11T19:20:42.497Z,103790.88
2023-02-11T19:23:09.905Z,103795.47
2023-02-11T19:25:37.193Z,103801.09
2023-02-11T19:28:04.157Z,103803.78
2023-02-11T19:30:30.768Z,103801.91
2023-02-11T19:32:57.831Z,103810.53
2023-02-11T19:35:25.291Z,103808.69
2023-02-11T19:37:51.944Z,103814.88
2023-02-11T19:40:38.657Z,103818.91
2023-02-11T19:43:05.125Z,103822.69
2023-02-11T19:45:31.527Z,103825.94
2023-02-11T19:47:58.063Z,103824.31
2023-02-11T19:50:24.762Z,103824.56
2023-02-11T19:52:51.445Z,103820.00
2023-02-11T19:55:18.096Z,103818.38
2023-02-11T19:57:44.685Z,103824.00
2023-02-11T20:00:14.085Z,103829.66
2023-02-11T20:02:40.867Z,103827.78
2023-02-11T20:05:07.961Z,103836.13
2023-02-11T20:07:37.211Z,103834.25
2023-02-11T20:10:03.913Z,103846.06
2023-02-11T20:12:30.423Z,103839.88
2023-02-11T20:14:56.820Z,103838.84
2023-02-11T20:17:23.406Z,103842.56
2023-02-11T20:19:49.866Z,103846.34
2023-02-11T20:22:16.443Z,103842.03
2023-02-11T20:24:42.933Z,103850.38
2023-02-11T20:27:11.511Z,103849.56
2023-02-11T20:29:39.162Z,103852.25
2023-02-11T20:32:06.786Z,103861.41
2023-02-11T20:34:35.767Z,103856.00
2023-02-11T20:37:04.265Z,103863.84
2023-02-11T20:39:30.719Z,103859.00
2023-02-11T20:42:22.037Z,103874.91
2023-02-11T20:44:48.543Z,103873.03
2023-02-11T20:47:15.105Z,103866.03
2023-02-11T20:49:41.659Z,103864.63
2023-02-11T20:52:08.294Z,103870.88
2023-02-11T20:54:34.872Z,103862.78
2023-02-11T20:57:01.682Z,103873.81
2023-02-11T20:59:28.168Z,103875.69
2023-02-11T21:01:56.479Z,103875.94
2023-02-11T21:04:29.389Z,103880.25
2023-02-11T21:06:58.683Z,103886.47
2023-02-11T21:09:28.772Z,103885.66
2023-02-11T21:11:55.881Z,103884.03
2023-02-11T21:14:24.044Z,103887.78
2023-02-11T21:16:51.152Z,103895.88
2023-02-11T21:19:17.889Z,103883.44
2023-02-11T21:21:44.850Z,103898.81
2023-02-11T21:24:12.380Z,103900.69
2023-02-11T21:26:39.415Z,103903.41
2023-02-11T21:29:07.143Z,103893.69
2023-02-11T21:31:35.269Z,103904.44
2023-02-11T21:34:02.372Z,103903.66
2023-02-11T21:36:29.777Z,103910.69
2023-02-11T21:38:56.427Z,103911.47
2023-02-11T21:41:23.245Z,103900.69
2023-02-11T21:43:50.249Z,103912.84
2023-02-11T21:46:19.052Z,103916.38
2023-02-11T21:48:45.998Z,103917.19
2023-02-11T21:51:22.071Z,103919.63
2023-02-11T21:53:53.338Z,103920.69
2023-02-11T21:56:19.976Z,103912.03
2023-02-11T21:58:46.832Z,103919.31
2023-02-11T22:01:19.005Z,103914.72
2023-02-11T22:03:46.811Z,103920.13
2023-02-11T22:06:16.532Z,103923.88
2023-02-11T22:08:43.303Z,103924.16
2023-02-11T22:11:12.817Z,103926.00
2023-02-11T22:13:40.355Z,103928.69
2023-02-11T22:16:09.696Z,103928.94
2023-02-11T22:18:36.223Z,103934.59
2023-02-11T22:21:09.445Z,103931.91
2023-02-11T22:23:36.839Z,103936.72
2023-02-11T22:26:06.002Z,103933.22
2023-02-11T22:28:32.817Z,103935.38
2023-02-11T22:31:01.283Z,103930.22
2023-02-11T22:33:28.774Z,103934.81
2023-02-11T22:36:04.310Z,103937.50
2023-02-11T22:38:32.120Z,103939.38
2023-02-11T22:41:00.978Z,103941.00
2023-02-11T22:43:28.114Z,103937.50
2023-02-11T22:45:56.571Z,103935.38
2023-02-11T22:48:23.364Z,103938.06
2023-02-11T22:50:49.976Z,103943.44
2023-02-11T22:53:16.392Z,103941.56
2023-02-11T22:55:43.150Z,103937.81
2023-02-11T22:58:09.592Z,103939.41
2023-02-11T23:00:39.625Z,103941.56
2023-02-11T23:03:07.711Z,103941.56
2023-02-11T23:05:39.289Z,103938.06
2023-02-11T23:08:07.807Z,103945.34
2023-02-11T23:10:36.365Z,103949.09
2023-02-11T23:13:05.059Z,103946.41
2023-02-11T23:15:32.030Z,103938.31
2023-02-11T23:17:59.181Z,103942.06
2023-02-11T23:20:25.885Z,103941.25
2023-02-11T23:22:52.532Z,103941.50
2023-02-11T23:25:19.141Z,103947.69
2023-02-11T23:27:45.742Z,103949.59
2023-02-11T23:30:12.770Z,103953.09
2023-02-11T23:32:39.452Z,103948.78
2023-02-11T23:35:06.325Z,103943.38
2023-02-11T23:37:32.840Z,103948.78
2023-02-11T23:39:59.229Z,103948.22
2023-02-11T23:42:25.846Z,103952.78
2023-02-11T23:44:52.354Z,103950.06
2023-02-11T23:47:18.759Z,103951.72
2023-02-11T23:49:45.177Z,103950.91
2023-02-11T23:52:11.762Z,103954.41
2023-02-11T23:54:55.206Z,103945.53
2023-02-11T23:57:21.671Z,103952.28
2023-02-11T23:59:51.264Z,103948.78
